sensor_id;sensor_type;location;lat;lon;timestamp;temperature;humidity
12819;DHT22;6474;53.474;9.894;2023-08-31T00:02:00;15.10;80.00
12819;DHT22;6474;53.474;9.894;2023-08-31T00:04:28;15.00;79.90
12819;DHT22;6474;53.474;9.894;2023-08-31T00:06:57;14.90;79.80
12819;DHT22;6474;53.474;9.894;2023-08-31T00:09:25;14.90;79.80
12819;DHT22;6474;53.474;9.894;2023-08-31T00:11:53;14.90;79.90
12819;DHT22;6474;53.474;9.894;2023-08-31T00:14:23;14.90;79.90
12819;DHT22;6474;53.474;9.894;2023-08-31T00:16:52;14.80;79.90
12819;DHT22;6474;53.474;9.894;2023-08-31T00:19:20;14.70;79.90
12819;DHT22;6474;53.474;9.894;2023-08-31T00:21:48;14.70;80.00
12819;DHT22;6474;53.474;9.894;2023-08-31T00:24:17;14.60;80.00
12819;DHT22;6474;53.474;9.894;2023-08-31T00:26:52;14.60;80.00
12819;DHT22;6474;53.474;9.894;2023-08-31T00:29:20;14.50;80.10
12819;DHT22;6474;53.474;9.894;2023-08-31T00:31:49;14.50;80.20
12819;DHT22;6474;53.474;9.894;2023-08-31T00:34:19;14.50;80.20
12819;DHT22;6474;53.474;9.894;2023-08-31T00:36:47;14.50;80.20
12819;DHT22;6474;53.474;9.894;2023-08-31T00:39:15;14.40;80.20
12819;DHT22;6474;53.474;9.894;2023-08-31T00:41:47;14.40;80.20
12819;DHT22;6474;53.474;9.894;2023-08-31T00:44:16;14.30;80.20
12819;DHT22;6474;53.474;9.894;2023-08-31T00:46:46;14.30;80.20
12819;DHT22;6474;53.474;9.894;2023-08-31T00:49:15;14.30;80.20
12819;DHT22;6474;53.474;9.894;2023-08-31T00:51:45;14.30;80.20
12819;DHT22;6474;53.474;9.894;2023-08-31T00:54:16;14.30;80.30
12819;DHT22;6474;53.474;9.894;2023-08-31T00:56:44;14.30;80.40
12819;DHT22;6474;53.474;9.894;2023-08-31T00:59:12;14.30;80.30
12819;DHT22;6474;53.474;9.894;2023-08-31T01:01:45;14.30;80.30
12819;DHT22;6474;53.474;9.894;2023-08-31T01:04:24;14.20;80.20
12819;DHT22;6474;53.474;9.894;2023-08-31T01:07:00;14.20;80.20
12819;DHT22;6474;53.474;9.894;2023-08-31T01:09:36;14.20;80.20
12819;DHT22;6474;53.474;9.894;2023-08-31T01:12:09;14.20;80.10
12819;DHT22;6474;53.474;9.894;2023-08-31T01:14:42;14.10;80.00
12819;DHT22;6474;53.474;9.894;2023-08-31T01:17:12;14.10;80.10
12819;DHT22;6474;53.474;9.894;2023-08-31T01:19:48;14.10;80.10
12819;DHT22;6474;53.474;9.894;2023-08-31T01:22:29;14.00;80.10
12819;DHT22;6474;53.474;9.894;2023-08-31T01:24:59;14.00;80.20
12819;DHT22;6474;53.474;9.894;2023-08-31T01:27:31;13.90;80.10
12819;DHT22;6474;53.474;9.894;2023-08-31T01:29:59;13.90;80.20
12819;DHT22;6474;53.474;9.894;2023-08-31T01:32:27;13.90;80.30
12819;DHT22;6474;53.474;9.894;2023-08-31T01:34:55;13.90;80.30
12819;DHT22;6474;53.474;9.894;2023-08-31T01:37:31;13.80;80.20
12819;DHT22;6474;53.474;9.894;2023-08-31T01:40:06;13.80;80.30
12819;DHT22;6474;53.474;9.894;2023-08-31T01:42:38;13.80;80.30
12819;DHT22;6474;53.474;9.894;2023-08-31T01:45:07;13.80;80.30
12819;DHT22;6474;53.474;9.894;2023-08-31T01:47:36;13.80;80.30
12819;DHT22;6474;53.474;9.894;2023-08-31T01:50:04;13.80;80.30
12819;DHT22;6474;53.474;9.894;2023-08-31T01:52:32;13.80;80.30
12819;DHT22;6474;53.474;9.894;2023-08-31T01:55:02;13.70;80.20
12819;DHT22;6474;53.474;9.894;2023-08-31T01:57:30;13.70;80.20
12819;DHT22;6474;53.474;9.894;2023-08-31T01:59:58;13.70;80.20
12819;DHT22;6474;53.474;9.894;2023-08-31T02:02:26;13.70;80.20
12819;DHT22;6474;53.474;9.894;2023-08-31T02:04:54;13.70;80.20
12819;DHT22;6474;53.474;9.894;2023-08-31T02:07:23;13.60;80.10
12819;DHT22;6474;53.474;9.894;2023-08-31T02:09:51;13.60;80.10
12819;DHT22;6474;53.474;9.894;2023-08-31T02:12:20;13.60;80.20
12819;DHT22;6474;53.474;9.894;2023-08-31T02:14:48;13.50;80.10
12819;DHT22;6474;53.474;9.894;2023-08-31T02:17:16;13.50;80.20
12819;DHT22;6474;53.474;9.894;2023-08-31T02:19:44;13.50;80.20
12819;DHT22;6474;53.474;9.894;2023-08-31T02:22:12;13.50;80.20
12819;DHT22;6474;53.474;9.894;2023-08-31T02:24:40;13.40;80.10
12819;DHT22;6474;53.474;9.894;2023-08-31T02:27:09;13.40;80.10
12819;DHT22;6474;53.474;9.894;2023-08-31T02:29:38;13.40;80.10
12819;DHT22;6474;53.474;9.894;2023-08-31T02:32:07;13.40;80.30
12819;DHT22;6474;53.474;9.894;2023-08-31T02:34:35;13.30;80.20
12819;DHT22;6474;53.474;9.894;2023-08-31T02:37:03;13.30;80.20
12819;DHT22;6474;53.474;9.894;2023-08-31T02:39:31;13.30;80.30
12819;DHT22;6474;53.474;9.894;2023-08-31T02:41:59;13.30;80.20
12819;DHT22;6474;53.474;9.894;2023-08-31T02:44:27;13.20;80.20
12819;DHT22;6474;53.474;9.894;2023-08-31T02:46:56;13.20;80.30
12819;DHT22;6474;53.474;9.894;2023-08-31T02:49:24;13.20;80.40
12819;DHT22;6474;53.474;9.894;2023-08-31T02:51:52;13.10;80.30
12819;DHT22;6474;53.474;9.894;2023-08-31T02:54:20;13.10;80.30
12819;DHT22;6474;53.474;9.894;2023-08-31T02:56:47;13.10;80.30
12819;DHT22;6474;53.474;9.894;2023-08-31T02:59:16;13.10;80.40
12819;DHT22;6474;53.474;9.894;2023-08-31T03:01:44;13.10;80.40
12819;DHT22;6474;53.474;9.894;2023-08-31T03:04:16;13.10;80.50
12819;DHT22;6474;53.474;9.894;2023-08-31T03:06:44;13.00;80.40
12819;DHT22;6474;53.474;9.894;2023-08-31T03:09:12;13.00;80.40
12819;DHT22;6474;53.474;9.894;2023-08-31T03:11:40;13.00;80.40
12819;DHT22;6474;53.474;9.894;2023-08-31T03:14:08;13.00;80.40
12819;DHT22;6474;53.474;9.894;2023-08-31T03:16:37;13.00;80.40
12819;DHT22;6474;53.474;9.894;2023-08-31T03:19:05;12.90;80.30
12819;DHT22;6474;53.474;9.894;2023-08-31T03:21:35;12.90;80.30
12819;DHT22;6474;53.474;9.894;2023-08-31T03:24:03;12.90;80.30
12819;DHT22;6474;53.474;9.894;2023-08-31T03:26:31;12.90;80.30
12819;DHT22;6474;53.474;9.894;2023-08-31T03:29:00;12.90;80.30
12819;DHT22;6474;53.474;9.894;2023-08-31T03:31:29;12.80;80.20
12819;DHT22;6474;53.474;9.894;2023-08-31T03:33:57;12.80;80.20
12819;DHT22;6474;53.474;9.894;2023-08-31T03:36:25;12.80;80.20
12819;DHT22;6474;53.474;9.894;2023-08-31T03:38:55;12.80;80.20
12819;DHT22;6474;53.474;9.894;2023-08-31T03:41:23;12.80;80.20
12819;DHT22;6474;53.474;9.894;2023-08-31T03:43:51;12.70;80.20
12819;DHT22;6474;53.474;9.894;2023-08-31T03:46:18;12.70;80.20
12819;DHT22;6474;53.474;9.894;2023-08-31T03:48:46;12.70;80.60
12819;DHT22;6474;53.474;9.894;2023-08-31T03:51:14;12.70;80.20
12819;DHT22;6474;53.474;9.894;2023-08-31T03:53:42;12.70;80.30
12819;DHT22;6474;53.474;9.894;2023-08-31T03:56:11;12.70;80.20
12819;DHT22;6474;53.474;9.894;2023-08-31T03:58:39;12.70;80.30
12819;DHT22;6474;53.474;9.894;2023-08-31T04:01:08;12.60;80.10
12819;DHT22;6474;53.474;9.894;2023-08-31T04:03:37;12.60;80.10
12819;DHT22;6474;53.474;9.894;2023-08-31T04:06:05;12.60;80.10
12819;DHT22;6474;53.474;9.894;2023-08-31T04:08:33;12.60;80.10
12819;DHT22;6474;53.474;9.894;2023-08-31T04:11:01;12.60;80.20
12819;DHT22;6474;53.474;9.894;2023-08-31T04:13:31;12.60;80.30
12819;DHT22;6474;53.474;9.894;2023-08-31T04:15:59;12.50;80.20
12819;DHT22;6474;53.474;9.894;2023-08-31T04:18:26;12.50;80.20
12819;DHT22;6474;53.474;9.894;2023-08-31T04:20:54;12.50;80.30
12819;DHT22;6474;53.474;9.894;2023-08-31T04:23:25;12.40;80.20
12819;DHT22;6474;53.474;9.894;2023-08-31T04:25:53;12.50;80.40
12819;DHT22;6474;53.474;9.894;2023-08-31T04:28:21;12.40;80.30
12819;DHT22;6474;53.474;9.894;2023-08-31T04:30:50;12.40;80.30
12819;DHT22;6474;53.474;9.894;2023-08-31T04:33:18;12.40;80.40
12819;DHT22;6474;53.474;9.894;2023-08-31T04:35:46;12.40;80.40
12819;DHT22;6474;53.474;9.894;2023-08-31T04:38:14;12.40;80.30
12819;DHT22;6474;53.474;9.894;2023-08-31T04:40:42;12.40;80.40
12819;DHT22;6474;53.474;9.894;2023-08-31T04:43:11;12.40;80.40
12819;DHT22;6474;53.474;9.894;2023-08-31T04:45:39;12.40;80.40
12819;DHT22;6474;53.474;9.894;2023-08-31T04:48:08;12.40;80.40
12819;DHT22;6474;53.474;9.894;2023-08-31T04:50:36;12.30;80.30
12819;DHT22;6474;53.474;9.894;2023-08-31T04:53:04;12.40;80.40
12819;DHT22;6474;53.474;9.894;2023-08-31T04:55:32;12.30;80.30
12819;DHT22;6474;53.474;9.894;2023-08-31T04:58:00;12.40;80.40
12819;DHT22;6474;53.474;9.894;2023-08-31T05:00:28;12.30;80.40
12819;DHT22;6474;53.474;9.894;2023-08-31T05:02:56;12.40;80.50
12819;DHT22;6474;53.474;9.894;2023-08-31T05:05:26;12.30;80.40
12819;DHT22;6474;53.474;9.894;2023-08-31T05:07:53;12.30;80.40
12819;DHT22;6474;53.474;9.894;2023-08-31T05:10:21;12.40;80.50
12819;DHT22;6474;53.474;9.894;2023-08-31T05:12:49;12.40;80.50
12819;DHT22;6474;53.474;9.894;2023-08-31T05:15:17;12.40;80.40
12819;DHT22;6474;53.474;9.894;2023-08-31T05:17:45;12.50;80.40
12819;DHT22;6474;53.474;9.894;2023-08-31T05:20:14;12.50;80.30
12819;DHT22;6474;53.474;9.894;2023-08-31T05:22:43;12.50;80.30
12819;DHT22;6474;53.474;9.894;2023-08-31T05:25:11;12.50;80.30
12819;DHT22;6474;53.474;9.894;2023-08-31T05:27:39;12.50;80.30
12819;DHT22;6474;53.474;9.894;2023-08-31T05:30:07;12.50;80.30
12819;DHT22;6474;53.474;9.894;2023-08-31T05:32:36;12.50;80.30
12819;DHT22;6474;53.474;9.894;2023-08-31T05:35:04;12.50;80.20
12819;DHT22;6474;53.474;9.894;2023-08-31T05:37:33;12.60;80.30
12819;DHT22;6474;53.474;9.894;2023-08-31T05:40:07;12.60;80.20
12819;DHT22;6474;53.474;9.894;2023-08-31T05:42:37;12.60;80.20
12819;DHT22;6474;53.474;9.894;2023-08-31T05:45:06;12.60;80.20
12819;DHT22;6474;53.474;9.894;2023-08-31T05:47:34;12.60;80.10
12819;DHT22;6474;53.474;9.894;2023-08-31T05:50:02;12.70;80.20
12819;DHT22;6474;53.474;9.894;2023-08-31T05:52:30;12.70;80.20
12819;DHT22;6474;53.474;9.894;2023-08-31T05:54:59;12.70;80.20
12819;DHT22;6474;53.474;9.894;2023-08-31T05:57:29;12.70;80.10
12819;DHT22;6474;53.474;9.894;2023-08-31T05:59:56;12.80;80.20
12819;DHT22;6474;53.474;9.894;2023-08-31T06:02:24;12.80;80.20
12819;DHT22;6474;53.474;9.894;2023-08-31T06:04:52;12.80;80.20
12819;DHT22;6474;53.474;9.894;2023-08-31T06:07:20;12.90;80.30
12819;DHT22;6474;53.474;9.894;2023-08-31T06:09:48;12.90;80.20
12819;DHT22;6474;53.474;9.894;2023-08-31T06:12:16;12.90;80.10
12819;DHT22;6474;53.474;9.894;2023-08-31T06:14:45;13.00;80.20
12819;DHT22;6474;53.474;9.894;2023-08-31T06:17:13;13.00;80.20
12819;DHT22;6474;53.474;9.894;2023-08-31T06:19:41;13.10;80.20
12819;DHT22;6474;53.474;9.894;2023-08-31T06:22:10;13.20;80.30
12819;DHT22;6474;53.474;9.894;2023-08-31T06:24:38;13.20;80.10
12819;DHT22;6474;53.474;9.894;2023-08-31T06:27:06;13.20;80.00
12819;DHT22;6474;53.474;9.894;2023-08-31T06:29:34;13.20;79.90
12819;DHT22;6474;53.474;9.894;2023-08-31T06:32:03;13.30;80.00
12819;DHT22;6474;53.474;9.894;2023-08-31T06:34:31;13.30;79.90
12819;DHT22;6474;53.474;9.894;2023-08-31T06:36:59;13.40;80.00
12819;DHT22;6474;53.474;9.894;2023-08-31T06:39:27;13.40;79.90
12819;DHT22;6474;53.474;9.894;2023-08-31T06:41:55;13.40;79.90
12819;DHT22;6474;53.474;9.894;2023-08-31T06:44:23;13.50;80.00
12819;DHT22;6474;53.474;9.894;2023-08-31T06:46:51;13.50;80.00
12819;DHT22;6474;53.474;9.894;2023-08-31T06:49:21;13.50;79.90
12819;DHT22;6474;53.474;9.894;2023-08-31T06:51:49;13.60;79.90
12819;DHT22;6474;53.474;9.894;2023-08-31T06:54:17;13.70;79.90
12819;DHT22;6474;53.474;9.894;2023-08-31T06:56:45;13.70;79.80
12819;DHT22;6474;53.474;9.894;2023-08-31T06:59:13;13.80;79.80
12819;DHT22;6474;53.474;9.894;2023-08-31T07:01:41;13.90;79.80
12819;DHT22;6474;53.474;9.894;2023-08-31T07:04:09;13.90;79.70
12819;DHT22;6474;53.474;9.894;2023-08-31T07:06:39;13.90;79.70
12819;DHT22;6474;53.474;9.894;2023-08-31T07:09:07;14.00;79.70
12819;DHT22;6474;53.474;9.894;2023-08-31T07:11:35;14.10;79.70
12819;DHT22;6474;53.474;9.894;2023-08-31T07:14:03;14.10;79.60
12819;DHT22;6474;53.474;9.894;2023-08-31T07:16:31;14.20;79.60
12819;DHT22;6474;53.474;9.894;2023-08-31T07:18:59;14.20;79.60
12819;DHT22;6474;53.474;9.894;2023-08-31T07:21:27;14.30;79.60
12819;DHT22;6474;53.474;9.894;2023-08-31T07:23:56;14.30;79.50
12819;DHT22;6474;53.474;9.894;2023-08-31T07:26:24;14.40;79.60
12819;DHT22;6474;53.474;9.894;2023-08-31T07:28:52;14.50;79.70
12819;DHT22;6474;53.474;9.894;2023-08-31T07:31:19;14.50;79.60
12819;DHT22;6474;53.474;9.894;2023-08-31T07:33:47;14.60;79.80
12819;DHT22;6474;53.474;9.894;2023-08-31T07:36:15;14.60;79.80
12819;DHT22;6474;53.474;9.894;2023-08-31T07:38:43;14.60;79.60
12819;DHT22;6474;53.474;9.894;2023-08-31T07:41:13;14.70;79.70
12819;DHT22;6474;53.474;9.894;2023-08-31T07:43:40;14.70;79.70
12819;DHT22;6474;53.474;9.894;2023-08-31T07:46:20;14.80;79.70
12819;DHT22;6474;53.474;9.894;2023-08-31T07:48:48;14.80;79.70
12819;DHT22;6474;53.474;9.894;2023-08-31T07:51:17;14.90;79.90
12819;DHT22;6474;53.474;9.894;2023-08-31T07:53:49;14.90;79.80
12819;DHT22;6474;53.474;9.894;2023-08-31T07:56:19;15.00;79.80
12819;DHT22;6474;53.474;9.894;2023-08-31T07:58:47;15.10;79.90
12819;DHT22;6474;53.474;9.894;2023-08-31T08:01:15;15.10;79.70
12819;DHT22;6474;53.474;9.894;2023-08-31T08:03:44;15.10;79.60
12819;DHT22;6474;53.474;9.894;2023-08-31T08:06:12;15.20;79.70
12819;DHT22;6474;53.474;9.894;2023-08-31T08:08:40;15.20;79.60
12819;DHT22;6474;53.474;9.894;2023-08-31T08:11:08;15.20;79.70
12819;DHT22;6474;53.474;9.894;2023-08-31T08:13:38;15.20;79.70
12819;DHT22;6474;53.474;9.894;2023-08-31T08:16:08;15.20;79.70
12819;DHT22;6474;53.474;9.894;2023-08-31T08:18:36;15.30;79.80
12819;DHT22;6474;53.474;9.894;2023-08-31T08:21:04;15.30;79.80
12819;DHT22;6474;53.474;9.894;2023-08-31T08:23:31;15.40;79.90
12819;DHT22;6474;53.474;9.894;2023-08-31T08:25:59;15.40;79.80
12819;DHT22;6474;53.474;9.894;2023-08-31T08:28:27;15.50;79.90
12819;DHT22;6474;53.474;9.894;2023-08-31T08:30:57;15.60;80.00
12819;DHT22;6474;53.474;9.894;2023-08-31T08:33:24;15.70;80.10
12819;DHT22;6474;53.474;9.894;2023-08-31T08:35:56;15.90;80.20
12819;DHT22;6474;53.474;9.894;2023-08-31T08:38:24;15.90;80.10
12819;DHT22;6474;53.474;9.894;2023-08-31T08:40:55;16.00;80.10
12819;DHT22;6474;53.474;9.894;2023-08-31T08:43:25;16.10;80.20
12819;DHT22;6474;53.474;9.894;2023-08-31T08:45:54;16.10;80.10
12819;DHT22;6474;53.474;9.894;2023-08-31T08:48:26;16.10;80.20
12819;DHT22;6474;53.474;9.894;2023-08-31T08:50:55;16.20;80.30
12819;DHT22;6474;53.474;9.894;2023-08-31T08:53:23;16.30;80.40
12819;DHT22;6474;53.474;9.894;2023-08-31T08:55:51;16.40;80.50
12819;DHT22;6474;53.474;9.894;2023-08-31T08:58:19;16.40;80.50
12819;DHT22;6474;53.474;9.894;2023-08-31T09:00:48;16.60;80.60
12819;DHT22;6474;53.474;9.894;2023-08-31T09:03:16;16.70;80.50
12819;DHT22;6474;53.474;9.894;2023-08-31T09:05:45;16.80;80.60
12819;DHT22;6474;53.474;9.894;2023-08-31T09:08:13;16.80;80.50
12819;DHT22;6474;53.474;9.894;2023-08-31T09:10:43;16.80;80.50
12819;DHT22;6474;53.474;9.894;2023-08-31T09:13:13;16.70;80.40
12819;DHT22;6474;53.474;9.894;2023-08-31T09:15:45;16.60;80.50
12819;DHT22;6474;53.474;9.894;2023-08-31T09:18:15;16.60;80.60
12819;DHT22;6474;53.474;9.894;2023-08-31T09:20:46;16.60;80.70
12819;DHT22;6474;53.474;9.894;2023-08-31T09:23:14;16.60;80.70
12819;DHT22;6474;53.474;9.894;2023-08-31T09:25:43;16.60;80.70
12819;DHT22;6474;53.474;9.894;2023-08-31T09:28:12;16.50;80.70
12819;DHT22;6474;53.474;9.894;2023-08-31T09:30:41;16.50;80.90
12819;DHT22;6474;53.474;9.894;2023-08-31T09:33:10;16.50;81.00
12819;DHT22;6474;53.474;9.894;2023-08-31T09:35:49;16.50;81.00
12819;DHT22;6474;53.474;9.894;2023-08-31T09:38:18;16.50;81.10
12819;DHT22;6474;53.474;9.894;2023-08-31T09:40:46;16.60;81.20
12819;DHT22;6474;53.474;9.894;2023-08-31T09:43:19;16.60;81.20
12819;DHT22;6474;53.474;9.894;2023-08-31T09:45:48;16.70;81.10
12819;DHT22;6474;53.474;9.894;2023-08-31T09:48:16;16.80;81.20
12819;DHT22;6474;53.474;9.894;2023-08-31T09:50:45;16.90;81.20
12819;DHT22;6474;53.474;9.894;2023-08-31T09:53:16;17.00;81.20
12819;DHT22;6474;53.474;9.894;2023-08-31T09:55:47;17.00;81.00
12819;DHT22;6474;53.474;9.894;2023-08-31T09:58:19;17.00;80.80
12819;DHT22;6474;53.474;9.894;2023-08-31T10:00:49;17.00;80.60
12819;DHT22;6474;53.474;9.894;2023-08-31T10:03:17;17.00;80.50
12819;DHT22;6474;53.474;9.894;2023-08-31T10:05:48;17.00;79.70
12819;DHT22;6474;53.474;9.894;2023-08-31T10:08:18;17.00;79.50
12819;DHT22;6474;53.474;9.894;2023-08-31T10:10:46;17.10;79.70
12819;DHT22;6474;53.474;9.894;2023-08-31T10:13:14;17.20;79.80
12819;DHT22;6474;53.474;9.894;2023-08-31T10:15:44;17.30;79.90
12819;DHT22;6474;53.474;9.894;2023-08-31T10:18:12;17.40;80.00
12819;DHT22;6474;53.474;9.894;2023-08-31T10:20:42;17.50;80.10
12819;DHT22;6474;53.474;9.894;2023-08-31T10:23:11;17.60;80.20
12819;DHT22;6474;53.474;9.894;2023-08-31T10:26:03;17.70;80.30
12819;DHT22;6474;53.474;9.894;2023-08-31T10:28:39;17.70;80.30
12819;DHT22;6474;53.474;9.894;2023-08-31T10:31:09;17.60;80.20
12819;DHT22;6474;53.474;9.894;2023-08-31T10:33:41;17.70;80.30
12819;DHT22;6474;53.474;9.894;2023-08-31T10:36:11;17.80;80.40
12819;DHT22;6474;53.474;9.894;2023-08-31T10:38:40;17.80;80.40
12819;DHT22;6474;53.474;9.894;2023-08-31T10:41:20;17.80;80.40
12819;DHT22;6474;53.474;9.894;2023-08-31T10:43:51;17.80;80.40
12819;DHT22;6474;53.474;9.894;2023-08-31T10:46:25;17.90;80.50
12819;DHT22;6474;53.474;9.894;2023-08-31T10:48:54;18.00;80.30
12819;DHT22;6474;53.474;9.894;2023-08-31T10:51:24;18.00;79.90
12819;DHT22;6474;53.474;9.894;2023-08-31T10:54:03;17.90;79.80
12819;DHT22;6474;53.474;9.894;2023-08-31T10:56:33;17.80;79.90
12819;DHT22;6474;53.474;9.894;2023-08-31T10:59:01;17.80;80.00
12819;DHT22;6474;53.474;9.894;2023-08-31T11:01:52;17.70;80.30
12819;DHT22;6474;53.474;9.894;2023-08-31T11:04:21;17.80;80.40
12819;DHT22;6474;53.474;9.894;2023-08-31T11:09:35;18.10;80.40
12819;DHT22;6474;53.474;9.894;2023-08-31T11:12:05;18.20;80.00
12819;DHT22;6474;53.474;9.894;2023-08-31T11:14:33;18.40;80.00
12819;DHT22;6474;53.474;9.894;2023-08-31T11:17:02;18.50;79.80
12819;DHT22;6474;53.474;9.894;2023-08-31T11:19:34;18.50;79.50
12819;DHT22;6474;53.474;9.894;2023-08-31T11:22:02;18.50;79.60
12819;DHT22;6474;53.474;9.894;2023-08-31T11:24:32;18.60;79.60
12819;DHT22;6474;53.474;9.894;2023-08-31T11:27:00;18.50;79.40
12819;DHT22;6474;53.474;9.894;2023-08-31T11:29:31;18.40;79.40
12819;DHT22;6474;53.474;9.894;2023-08-31T11:32:00;18.30;79.50
12819;DHT22;6474;53.474;9.894;2023-08-31T11:34:29;18.20;79.90
12819;DHT22;6474;53.474;9.894;2023-08-31T11:36:57;18.20;80.10
12819;DHT22;6474;53.474;9.894;2023-08-31T11:39:26;18.20;80.20
12819;DHT22;6474;53.474;9.894;2023-08-31T11:41:55;18.30;80.40
12819;DHT22;6474;53.474;9.894;2023-08-31T11:44:25;18.40;80.20
12819;DHT22;6474;53.474;9.894;2023-08-31T11:46:54;18.50;80.10
12819;DHT22;6474;53.474;9.894;2023-08-31T11:49:22;18.50;80.00
12819;DHT22;6474;53.474;9.894;2023-08-31T11:51:50;18.40;79.90
12819;DHT22;6474;53.474;9.894;2023-08-31T11:54:18;18.30;80.10
12819;DHT22;6474;53.474;9.894;2023-08-31T11:56:47;18.40;80.30
12819;DHT22;6474;53.474;9.894;2023-08-31T11:59:16;18.50;80.40
12819;DHT22;6474;53.474;9.894;2023-08-31T12:01:47;18.60;80.50
12819;DHT22;6474;53.474;9.894;2023-08-31T12:04:20;18.80;80.50
12819;DHT22;6474;53.474;9.894;2023-08-31T12:06:50;18.80;80.20
12819;DHT22;6474;53.474;9.894;2023-08-31T12:09:19;18.80;80.00
12819;DHT22;6474;53.474;9.894;2023-08-31T12:11:50;18.80;80.00
12819;DHT22;6474;53.474;9.894;2023-08-31T12:14:20;18.80;80.20
12819;DHT22;6474;53.474;9.894;2023-08-31T12:16:49;19.00;80.40
12819;DHT22;6474;53.474;9.894;2023-08-31T12:19:18;19.30;80.30
12819;DHT22;6474;53.474;9.894;2023-08-31T12:21:46;19.30;79.90
12819;DHT22;6474;53.474;9.894;2023-08-31T12:24:14;19.40;79.80
12819;DHT22;6474;53.474;9.894;2023-08-31T12:26:43;19.40;79.70
12819;DHT22;6474;53.474;9.894;2023-08-31T12:29:11;19.30;79.70
12819;DHT22;6474;53.474;9.894;2023-08-31T12:31:39;19.30;79.70
12819;DHT22;6474;53.474;9.894;2023-08-31T12:34:08;19.40;79.80
12819;DHT22;6474;53.474;9.894;2023-08-31T12:36:37;19.30;79.60
12819;DHT22;6474;53.474;9.894;2023-08-31T12:39:08;19.20;79.50
12819;DHT22;6474;53.474;9.894;2023-08-31T12:41:37;19.20;79.60
12819;DHT22;6474;53.474;9.894;2023-08-31T12:44:06;19.00;79.50
12819;DHT22;6474;53.474;9.894;2023-08-31T12:46:34;19.00;79.70
12819;DHT22;6474;53.474;9.894;2023-08-31T12:49:03;19.00;79.70
12819;DHT22;6474;53.474;9.894;2023-08-31T12:51:31;19.00;79.70
12819;DHT22;6474;53.474;9.894;2023-08-31T12:54:00;19.00;79.80
12819;DHT22;6474;53.474;9.894;2023-08-31T12:56:29;18.90;79.50
12819;DHT22;6474;53.474;9.894;2023-08-31T12:58:59;18.90;79.60
12819;DHT22;6474;53.474;9.894;2023-08-31T13:01:27;18.90;79.60
12819;DHT22;6474;53.474;9.894;2023-08-31T13:03:55;18.80;79.60
12819;DHT22;6474;53.474;9.894;2023-08-31T13:06:23;18.70;79.50
12819;DHT22;6474;53.474;9.894;2023-08-31T13:08:52;18.70;79.70
12819;DHT22;6474;53.474;9.894;2023-08-31T13:11:21;18.60;79.80
12819;DHT22;6474;53.474;9.894;2023-08-31T13:13:51;18.70;79.80
12819;DHT22;6474;53.474;9.894;2023-08-31T13:16:19;18.70;79.60
12819;DHT22;6474;53.474;9.894;2023-08-31T13:18:51;18.70;79.80
12819;DHT22;6474;53.474;9.894;2023-08-31T13:21:19;18.60;79.50
12819;DHT22;6474;53.474;9.894;2023-08-31T13:23:46;18.60;79.60
12819;DHT22;6474;53.474;9.894;2023-08-31T13:26:15;18.60;79.70
12819;DHT22;6474;53.474;9.894;2023-08-31T13:28:44;18.60;79.80
12819;DHT22;6474;53.474;9.894;2023-08-31T13:31:12;18.70;79.90
12819;DHT22;6474;53.474;9.894;2023-08-31T13:33:40;18.90;80.00
12819;DHT22;6474;53.474;9.894;2023-08-31T13:36:09;19.00;79.90
12819;DHT22;6474;53.474;9.894;2023-08-31T13:38:38;19.20;79.60
12819;DHT22;6474;53.474;9.894;2023-08-31T13:41:07;19.30;79.40
12819;DHT22;6474;53.474;9.894;2023-08-31T13:43:35;19.30;79.10
12819;DHT22;6474;53.474;9.894;2023-08-31T13:46:04;19.30;78.70
12819;DHT22;6474;53.474;9.894;2023-08-31T13:48:32;19.20;78.40
12819;DHT22;6474;53.474;9.894;2023-08-31T13:51:00;19.10;78.40
12819;DHT22;6474;53.474;9.894;2023-08-31T13:53:28;19.00;78.30
12819;DHT22;6474;53.474;9.894;2023-08-31T13:55:56;18.80;78.30
12819;DHT22;6474;53.474;9.894;2023-08-31T13:58:24;18.80;78.50
12819;DHT22;6474;53.474;9.894;2023-08-31T14:00:52;18.70;78.40
12819;DHT22;6474;53.474;9.894;2023-08-31T14:03:22;18.80;78.60
12819;DHT22;6474;53.474;9.894;2023-08-31T14:05:50;18.70;78.50
12819;DHT22;6474;53.474;9.894;2023-08-31T14:08:18;18.80;78.60
12819;DHT22;6474;53.474;9.894;2023-08-31T14:10:46;18.70;78.40
12819;DHT22;6474;53.474;9.894;2023-08-31T14:13:14;18.80;78.60
12819;DHT22;6474;53.474;9.894;2023-08-31T14:15:46;18.90;78.60
12819;DHT22;6474;53.474;9.894;2023-08-31T14:18:14;19.00;78.60
12819;DHT22;6474;53.474;9.894;2023-08-31T14:20:44;19.00;78.40
12819;DHT22;6474;53.474;9.894;2023-08-31T14:23:12;19.10;78.40
12819;DHT22;6474;53.474;9.894;2023-08-31T14:25:40;19.00;77.90
12819;DHT22;6474;53.474;9.894;2023-08-31T14:28:08;19.10;77.80
12819;DHT22;6474;53.474;9.894;2023-08-31T14:30:36;19.00;78.00
12819;DHT22;6474;53.474;9.894;2023-08-31T14:33:04;18.90;77.90
12819;DHT22;6474;53.474;9.894;2023-08-31T14:35:36;18.80;78.00
12819;DHT22;6474;53.474;9.894;2023-08-31T14:38:05;18.80;78.30
12819;DHT22;6474;53.474;9.894;2023-08-31T14:40:34;18.80;78.40
12819;DHT22;6474;53.474;9.894;2023-08-31T14:43:06;18.80;78.40
12819;DHT22;6474;53.474;9.894;2023-08-31T14:45:34;18.80;78.30
12819;DHT22;6474;53.474;9.894;2023-08-31T14:48:02;18.90;78.50
12819;DHT22;6474;53.474;9.894;2023-08-31T14:50:30;19.00;78.40
12819;DHT22;6474;53.474;9.894;2023-08-31T14:52:58;19.00;78.30
12819;DHT22;6474;53.474;9.894;2023-08-31T14:55:28;19.00;78.20
12819;DHT22;6474;53.474;9.894;2023-08-31T14:57:56;19.00;78.20
12819;DHT22;6474;53.474;9.894;2023-08-31T15:00:24;18.90;78.00
12819;DHT22;6474;53.474;9.894;2023-08-31T15:02:52;18.80;78.20
12819;DHT22;6474;53.474;9.894;2023-08-31T15:05:20;18.80;78.30
12819;DHT22;6474;53.474;9.894;2023-08-31T15:07:48;18.70;78.10
12819;DHT22;6474;53.474;9.894;2023-08-31T15:10:15;18.70;79.10
12819;DHT22;6474;53.474;9.894;2023-08-31T15:12:46;18.70;78.40
12819;DHT22;6474;53.474;9.894;2023-08-31T15:15:14;18.70;78.40
12819;DHT22;6474;53.474;9.894;2023-08-31T15:17:43;18.70;78.40
12819;DHT22;6474;53.474;9.894;2023-08-31T15:20:11;18.70;78.40
12819;DHT22;6474;53.474;9.894;2023-08-31T15:22:39;18.80;78.50
12819;DHT22;6474;53.474;9.894;2023-08-31T15:25:07;18.80;78.50
12819;DHT22;6474;53.474;9.894;2023-08-31T15:27:35;18.80;78.50
12819;DHT22;6474;53.474;9.894;2023-08-31T15:30:06;18.70;78.40
12819;DHT22;6474;53.474;9.894;2023-08-31T15:32:36;18.70;78.40
12819;DHT22;6474;53.474;9.894;2023-08-31T15:35:05;18.70;78.40
12819;DHT22;6474;53.474;9.894;2023-08-31T15:37:33;18.70;78.30
12819;DHT22;6474;53.474;9.894;2023-08-31T15:40:00;18.70;78.40
12819;DHT22;6474;53.474;9.894;2023-08-31T15:42:28;18.70;78.40
12819;DHT22;6474;53.474;9.894;2023-08-31T15:44:56;18.60;78.30
12819;DHT22;6474;53.474;9.894;2023-08-31T15:47:26;18.60;78.60
12819;DHT22;6474;53.474;9.894;2023-08-31T15:49:54;18.60;78.60
12819;DHT22;6474;53.474;9.894;2023-08-31T15:52:23;18.60;78.60
12819;DHT22;6474;53.474;9.894;2023-08-31T15:54:51;18.60;78.60
12819;DHT22;6474;53.474;9.894;2023-08-31T15:57:20;18.50;78.40
12819;DHT22;6474;53.474;9.894;2023-08-31T15:59:48;18.40;78.30